Time;durP1;ratioP1;P1;durP2;ratioP2;P2;SDS_P1;SDS_P2;PMS_P1;PMS_P2;Temp;Humidity;BMP_temperature;BMP_pressure;BME280_temperature;BME280_humidity;BME280_pressure;Samples;Min_cycle;Max_cycle;Signal;HPM_P1;HPM_P2
2022/10/13 00:00:35;;;;;;;7.20;2.93;;;12.60;99.90;;;;;;5036499;28;20502;-70
2022/10/13 00:03:02;;;;;;;4.37;2.50;;;12.60;99.90;;;;;;5034476;28;20464;-71
2022/10/13 00:05:31;;;;;;;4.70;2.60;;;12.60;99.90;;;;;;5037036;28;20444;-71
2022/10/13 00:07:58;;;;;;;5.67;4.07;;;12.60;99.90;;;;;;5034905;28;20460;-71
2022/10/13 00:10:26;;;;;;;3.70;2.63;;;12.60;99.90;;;;;;5036838;28;20484;-71
2022/10/13 00:12:53;;;;;;;7.30;2.67;;;12.50;99.90;;;;;;5034159;28;20484;-70
2022/10/13 00:15:20;;;;;;;6.73;3.00;;;12.50;99.90;;;;;;5036690;28;20459;-71
2022/10/13 00:17:49;;;;;;;6.27;3.40;;;12.50;99.90;;;;;;5032703;28;20464;-71
2022/10/13 00:20:15;;;;;;;4.63;2.63;;;12.60;99.90;;;;;;5036878;28;20869;-70
2022/10/13 00:22:42;;;;;;;5.60;3.50;;;12.60;99.90;;;;;;5034086;28;20468;-69
2022/10/13 00:25:10;;;;;;;6.23;3.27;;;12.70;99.90;;;;;;5036376;28;20765;-71
2022/10/13 00:27:36;;;;;;;6.20;3.03;;;12.80;99.90;;;;;;5038271;28;21070;-70
2022/10/13 00:30:04;;;;;;;5.97;2.80;;;12.80;99.90;;;;;;5040678;28;20483;-70
2022/10/13 00:32:31;;;;;;;6.40;4.40;;;12.80;99.90;;;;;;5038751;28;20444;-71
2022/10/13 00:34:59;;;;;;;7.40;3.10;;;12.80;99.90;;;;;;5041173;28;20506;-71
2022/10/13 00:37:26;;;;;;;6.67;3.60;;;12.80;99.90;;;;;;5040668;28;20510;-70
2022/10/13 00:39:53;;;;;;;6.13;2.87;;;12.70;99.90;;;;;;5040181;28;20448;-70
2022/10/13 00:42:22;;;;;;;13.33;4.57;;;12.80;99.90;;;;;;5040282;28;20740;-70
2022/10/13 00:45:06;;;;;;;6.60;4.27;;;12.80;99.90;;;;;;5037318;28;20459;-71
2022/10/13 00:47:37;;;;;;;7.77;3.70;;;12.80;99.90;;;;;;5037732;28;20452;-71
2022/10/13 00:50:10;;;;;;;7.67;4.67;;;12.70;99.90;;;;;;5040269;28;20483;-70
2022/10/13 00:52:39;;;;;;;6.43;3.20;;;12.70;99.90;;;;;;5036697;28;20444;-70
2022/10/13 00:55:08;;;;;;;6.80;3.80;;;12.60;99.90;;;;;;5040141;28;20506;-71
2022/10/13 00:57:36;;;;;;;7.77;4.00;;;12.60;99.90;;;;;;5037386;28;20456;-71
2022/10/13 01:00:04;;;;;;;9.47;4.00;;;12.60;99.90;;;;;;5040058;28;20444;-71
2022/10/13 01:02:35;;;;;;;7.97;3.43;;;12.60;99.90;;;;;;5036983;28;20546;-71
2022/10/13 01:05:07;;;;;;;11.37;4.13;;;12.60;99.90;;;;;;5040229;28;20510;-71
2022/10/13 01:07:35;;;;;;;6.60;3.53;;;12.60;99.90;;;;;;5037113;28;20525;-71
2022/10/13 01:10:04;;;;;;;6.67;3.43;;;12.60;99.90;;;;;;5039336;28;20935;-71
2022/10/13 01:12:42;;;;;;;12.40;4.60;;;12.60;99.90;;;;;;5037849;28;20456;-70
2022/10/13 01:15:16;;;;;;;6.03;4.13;;;12.50;99.90;;;;;;5040135;28;20448;-71
2022/10/13 01:17:52;;;;;;;23.80;4.30;;;12.50;99.90;;;;;;5036892;28;20518;-70
2022/10/13 01:20:59;;;;;;;6.40;4.00;;;12.50;99.90;;;;;;5040494;28;20444;-70
2022/10/13 01:23:50;;;;;;;6.63;3.40;;;12.40;99.90;;;;;;5037432;28;20758;-72
2022/10/13 01:26:42;;;;;;;10.63;4.03;;;12.40;99.90;;;;;;5036873;28;20460;-71
2022/10/13 01:29:25;;;;;;;7.30;2.93;;;12.30;99.90;;;;;;5036898;28;20561;-70
2022/10/13 01:32:02;;;;;;;7.20;4.33;;;12.30;99.90;;;;;;5038968;28;20502;-71
2022/10/13 01:34:34;;;;;;;9.83;4.40;;;12.30;99.90;;;;;;5036780;28;20456;-71
2022/10/13 01:37:05;;;;;;;7.00;3.20;;;12.30;99.90;;;;;;5039865;28;20456;-71
2022/10/13 01:39:40;;;;;;;9.23;4.80;;;12.20;99.90;;;;;;5036979;28;20448;-71
2022/10/13 01:42:14;;;;;;;7.20;4.30;;;12.20;99.90;;;;;;5039641;28;20447;-70
2022/10/13 01:44:47;;;;;;;9.83;4.07;;;12.20;99.90;;;;;;5039739;28;20460;-70
2022/10/13 01:47:17;;;;;;;10.73;4.30;;;12.20;99.90;;;;;;5039121;28;20538;-71
2022/10/13 01:49:45;;;;;;;8.03;4.60;;;12.20;99.90;;;;;;5035704;28;20542;-70
2022/10/13 01:52:15;;;;;;;8.50;4.30;;;12.20;99.90;;;;;;5039644;28;20456;-70
2022/10/13 01:54:42;;;;;;;8.70;5.63;;;12.10;99.90;;;;;;5036686;28;20452;-71
2022/10/13 01:57:30;;;;;;;8.43;4.27;;;12.20;99.90;;;;;;5039256;28;20448;-70
2022/10/13 01:59:58;;;;;;;10.93;5.00;;;12.20;99.90;;;;;;5039814;28;20507;-71
2022/10/13 02:02:32;;;;;;;10.97;4.70;;;12.20;99.90;;;;;;5039300;28;20447;-70
2022/10/13 02:05:09;;;;;;;10.13;4.57;;;12.20;99.90;;;;;;5038854;28;20445;-71
2022/10/13 02:07:44;;;;;;;10.27;4.93;;;12.30;99.90;;;;;;5034354;28;20455;-70
2022/10/13 02:10:17;;;;;;;8.60;3.90;;;12.40;99.90;;;;;;5038430;28;20484;-71
2022/10/13 02:12:49;;;;;;;8.40;4.47;;;12.50;99.90;;;;;;5037318;28;20476;-70
2022/10/13 02:15:21;;;;;;;12.60;5.87;;;12.50;99.90;;;;;;5038467;28;20503;-71
2022/10/13 02:17:50;;;;;;;9.50;4.60;;;12.50;99.90;;;;;;5036666;28;20468;-71
2022/10/13 02:20:20;;;;;;;10.80;5.60;;;12.50;99.90;;;;;;5038821;28;20432;-71
2022/10/13 02:22:52;;;;;;;8.43;4.40;;;12.50;99.90;;;;;;5036245;28;20954;-71
2022/10/13 02:25:19;;;;;;;13.83;6.17;;;12.50;99.90;;;;;;5038774;28;20452;-70
2022/10/13 02:27:46;;;;;;;12.10;4.13;;;12.50;99.90;;;;;;5035506;28;20957;-72
2022/10/13 02:30:21;;;;;;;8.37;4.43;;;12.50;99.90;;;;;;5038139;28;20480;-73
2022/10/13 02:32:50;;;;;;;5.97;3.13;;;12.50;99.90;;;;;;5035914;28;20482;-73
2022/10/13 02:35:17;;;;;;;9.77;4.90;;;12.50;99.90;;;;;;5038871;28;20456;-70
2022/10/13 02:37:44;;;;;;;8.47;4.00;;;12.50;99.90;;;;;;5034718;28;20437;-69
2022/10/13 02:40:11;;;;;;;7.57;4.50;;;12.60;99.90;;;;;;5037679;28;20899;-74
2022/10/13 02:42:38;;;;;;;7.90;3.97;;;12.60;99.90;;;;;;5035719;28;20444;-70
2022/10/13 02:45:06;;;;;;;12.30;3.80;;;12.60;99.90;;;;;;5038551;28;20449;-73
2022/10/13 02:47:33;;;;;;;7.53;3.57;;;12.60;99.90;;;;;;5035471;28;20448;-73
2022/10/13 02:50:02;;;;;;;9.27;4.23;;;12.60;99.90;;;;;;5036603;28;20484;-72
2022/10/13 02:52:29;;;;;;;13.27;4.70;;;12.60;99.90;;;;;;5033963;28;20831;-72
2022/10/13 02:54:56;;;;;;;10.43;4.40;;;12.50;99.90;;;;;;5036574;28;20460;-72
2022/10/13 02:57:23;;;;;;;12.70;4.90;;;12.50;99.90;;;;;;5036881;28;20449;-74
2022/10/13 02:59:50;;;;;;;9.20;5.00;;;12.50;99.90;;;;;;5036815;28;20518;-73
2022/10/13 03:02:17;;;;;;;17.50;5.00;;;12.50;99.90;;;;;;5037080;28;20459;-72
2022/10/13 03:04:44;;;;;;;8.20;5.30;;;12.50;99.90;;;;;;5034400;28;20566;-72
2022/10/13 03:07:13;;;;;;;12.30;5.47;;;12.60;99.90;;;;;;5037862;28;20456;-73
2022/10/13 03:09:40;;;;;;;8.50;5.17;;;12.60;99.90;;;;;;5035100;28;20947;-72
2022/10/13 03:12:07;;;;;;;6.00;3.83;;;12.60;99.90;;;;;;5036283;28;20495;-70
2022/10/13 03:14:34;;;;;;;11.90;4.83;;;12.60;99.90;;;;;;5033355;28;20492;-70
2022/10/13 03:17:02;;;;;;;8.87;5.30;;;12.60;99.90;;;;;;5035856;28;20459;-70
2022/10/13 03:19:29;;;;;;;10.80;6.07;;;12.60;99.90;;;;;;5034859;28;20460;-70
2022/10/13 03:21:56;;;;;;;8.43;4.47;;;12.60;99.90;;;;;;5037336;28;20452;-70
2022/10/13 03:24:24;;;;;;;9.67;4.07;;;12.60;99.90;;;;;;5034979;28;20526;-71
2022/10/13 03:26:51;;;;;;;13.97;5.20;;;12.60;99.90;;;;;;5037310;28;20521;-71
2022/10/13 03:29:18;;;;;;;10.20;4.87;;;12.70;99.90;;;;;;5035113;28;20452;-71
2022/10/13 03:31:45;;;;;;;7.37;4.10;;;12.70;99.90;;;;;;5037423;28;20444;-71
2022/10/13 03:34:15;;;;;;;6.10;3.40;;;12.70;99.90;;;;;;5035039;28;20452;-71
2022/10/13 03:36:42;;;;;;;7.83;3.93;;;12.80;99.90;;;;;;5036978;28;20471;-70
2022/10/13 03:39:09;;;;;;;10.20;5.43;;;12.80;99.90;;;;;;5034651;28;20486;-71
2022/10/13 03:41:37;;;;;;;6.20;4.33;;;12.80;99.90;;;;;;5036762;28;20563;-70
2022/10/13 03:44:06;;;;;;;8.53;5.07;;;12.80;99.90;;;;;;5035249;28;20510;-71
2022/10/13 03:46:33;;;;;;;9.40;3.97;;;12.90;99.90;;;;;;5037446;28;20502;-71
2022/10/13 03:49:00;;;;;;;7.80;3.87;;;12.80;99.90;;;;;;5034477;28;20460;-71
2022/10/13 03:51:27;;;;;;;10.60;4.63;;;12.80;99.90;;;;;;5036642;28;20479;-70
2022/10/13 03:53:54;;;;;;;5.67;3.50;;;12.80;99.90;;;;;;5034655;28;20510;-70
2022/10/13 03:56:24;;;;;;;5.20;3.67;;;12.80;99.90;;;;;;5036570;28;20510;-70
2022/10/13 03:58:54;;;;;;;8.73;4.53;;;12.90;99.90;;;;;;5033967;28;20460;-70
2022/10/13 04:01:22;;;;;;;6.90;3.17;;;12.90;99.90;;;;;;5036006;28;20575;-71
2022/10/13 04:03:49;;;;;;;9.93;5.60;;;12.90;99.90;;;;;;5034434;28;20470;-70
2022/10/13 04:06:16;;;;;;;13.07;3.53;;;12.90;99.90;;;;;;5037006;28;20762;-70
2022/10/13 04:08:43;;;;;;;8.03;3.43;;;13.00;99.90;;;;;;5035021;28;20470;-70
2022/10/13 04:11:12;;;;;;;7.50;4.07;;;13.00;99.90;;;;;;5037099;28;20480;-71
2022/10/13 04:13:39;;;;;;;8.60;4.13;;;12.90;99.90;;;;;;5032399;28;20541;-70
2022/10/13 04:16:13;;;;;;;6.63;3.27;;;12.90;99.90;;;;;;5036598;28;20826;-71
2022/10/13 04:18:40;;;;;;;9.50;3.90;;;12.90;99.90;;;;;;5034504;28;20854;-71
2022/10/13 04:21:09;;;;;;;5.00;3.13;;;12.90;99.90;;;;;;5036304;28;20967;-71
2022/10/13 04:23:36;;;;;;;6.20;3.47;;;12.90;99.90;;;;;;5034083;28;20490;-71
2022/10/13 04:26:03;;;;;;;10.70;5.80;;;12.90;99.90;;;;;;5035603;28;20453;-70
2022/10/13 04:28:32;;;;;;;8.77;4.00;;;13.00;99.90;;;;;;5036769;28;20583;-71
2022/10/13 04:30:59;;;;;;;6.47;3.07;;;12.90;99.90;;;;;;5034173;28;20488;-71
2022/10/13 04:33:28;;;;;;;9.67;4.50;;;12.90;99.90;;;;;;5035676;28;20456;-70
2022/10/13 04:35:55;;;;;;;9.93;4.13;;;12.90;99.90;;;;;;5032865;28;20522;-70
2022/10/13 04:38:22;;;;;;;9.67;3.23;;;12.80;99.90;;;;;;5036231;28;20475;-70
2022/10/13 04:40:49;;;;;;;14.00;4.60;;;12.80;99.90;;;;;;5031474;28;20456;-70
2022/10/13 04:43:16;;;;;;;5.13;2.50;;;12.80;99.90;;;;;;5034308;28;20939;-71
2022/10/13 04:45:43;;;;;;;7.50;3.67;;;12.80;99.90;;;;;;5032290;28;20510;-71
2022/10/13 04:48:10;;;;;;;7.90;4.33;;;12.80;99.90;;;;;;5035387;28;20492;-70
2022/10/13 04:50:39;;;;;;;8.23;3.47;;;12.90;99.90;;;;;;5032237;28;20752;-71
2022/10/13 04:53:06;;;;;;;10.90;3.43;;;12.90;99.90;;;;;;5035687;28;20448;-71
2022/10/13 04:55:36;;;;;;;8.53;4.20;;;13.00;99.90;;;;;;5032900;28;20460;-70
2022/10/13 04:58:03;;;;;;;6.73;2.67;;;12.90;99.90;;;;;;5035236;28;20444;-71
2022/10/13 05:00:30;;;;;;;4.83;3.67;;;12.90;99.90;;;;;;5032161;28;20453;-71
2022/10/13 05:02:57;;;;;;;4.87;2.60;;;12.80;99.90;;;;;;5035362;28;20456;-71
2022/10/13 05:05:24;;;;;;;5.90;2.60;;;12.80;99.90;;;;;;5032186;28;20460;-71
2022/10/13 05:07:52;;;;;;;7.50;3.27;;;12.80;99.90;;;;;;5035753;28;20529;-71
2022/10/13 05:10:19;;;;;;;9.47;2.73;;;12.80;99.90;;;;;;5033101;28;20523;-71
2022/10/13 05:12:46;;;;;;;4.97;2.70;;;12.70;99.90;;;;;;5037776;28;20574;-71
2022/10/13 05:15:13;;;;;;;6.10;3.60;;;12.70;99.90;;;;;;5036308;28;20459;-71
2022/10/13 05:17:40;;;;;;;10.23;3.53;;;12.70;99.90;;;;;;5036404;28;20715;-71
2022/10/13 05:20:08;;;;;;;7.63;2.70;;;12.60;99.90;;;;;;5035133;28;20453;-71
2022/10/13 05:22:35;;;;;;;6.70;3.50;;;12.60;99.90;;;;;;5038922;28;20448;-71
2022/10/13 05:25:05;;;;;;;10.10;3.87;;;12.70;99.90;;;;;;5036002;28;20946;-71
2022/10/13 05:27:31;;;;;;;6.57;2.63;;;12.60;99.90;;;;;;5038613;28;20456;-71
2022/10/13 05:29:58;;;;;;;9.33;3.30;;;12.60;99.90;;;;;;5035252;28;20460;-72
2022/10/13 05:32:25;;;;;;;9.87;3.73;;;12.60;99.90;;;;;;5039170;28;20506;-71
2022/10/13 05:34:53;;;;;;;6.70;3.07;;;12.60;99.90;;;;;;5034010;28;20823;-71
2022/10/13 05:37:21;;;;;;;8.07;3.80;;;12.60;99.90;;;;;;5037504;28;20448;-72
2022/10/13 05:39:48;;;;;;;5.73;2.33;;;12.60;99.90;;;;;;5034297;28;20911;-71
2022/10/13 05:42:16;;;;;;;7.33;3.33;;;12.50;99.90;;;;;;5038870;28;20490;-74
2022/10/13 05:44:43;;;;;;;10.93;3.70;;;12.50;99.90;;;;;;5034590;28;20460;-73
2022/10/13 05:47:10;;;;;;;11.73;4.23;;;12.50;99.90;;;;;;5037386;28;20445;-74
2022/10/13 05:49:38;;;;;;;9.13;4.90;;;12.50;99.90;;;;;;5033362;28;20456;-71
2022/10/13 05:52:10;;;;;;;8.33;4.20;;;12.70;99.90;;;;;;5037674;28;20491;-71
2022/10/13 05:54:41;;;;;;;8.13;2.60;;;12.70;99.90;;;;;;5034269;28;20949;-71
2022/10/13 05:57:13;;;;;;;7.43;3.80;;;13.00;99.90;;;;;;5037472;28;20452;-71
2022/10/13 05:59:44;;;;;;;6.33;3.00;;;13.10;99.90;;;;;;5034596;28;20526;-71
2022/10/13 06:02:15;;;;;;;8.10;3.10;;;13.00;99.90;;;;;;5037349;28;20498;-71
2022/10/13 06:04:46;;;;;;;6.23;3.23;;;12.90;99.90;;;;;;5035047;28;20452;-72
2022/10/13 06:07:13;;;;;;;10.30;3.20;;;12.80;99.90;;;;;;5037291;28;20545;-72
2022/10/13 06:09:41;;;;;;;10.97;5.23;;;12.80;99.90;;;;;;5035136;28;20452;-72
2022/10/13 06:12:09;;;;;;;14.40;4.80;;;12.60;99.90;;;;;;5035271;28;20480;-72
2022/10/13 06:14:36;;;;;;;7.30;3.70;;;12.60;99.90;;;;;;5033926;28;20919;-72
2022/10/13 06:17:05;;;;;;;7.10;4.27;;;12.60;99.90;;;;;;5037813;28;20892;-73
2022/10/13 06:19:32;;;;;;;9.70;4.07;;;12.60;99.90;;;;;;5033668;28;20460;-72
2022/10/13 06:21:59;;;;;;;8.33;4.10;;;12.70;99.90;;;;;;5035615;28;20502;-72
2022/10/13 06:24:26;;;;;;;9.67;4.17;;;12.60;99.90;;;;;;5034041;28;20441;-74
2022/10/13 06:26:53;;;;;;;4.90;2.57;;;12.70;99.90;;;;;;5037355;28;20452;-71
2022/10/13 06:29:20;;;;;;;7.07;3.70;;;12.70;99.90;;;;;;5024546;28;20456;-72
2022/10/13 06:31:47;;;;;;;8.57;3.87;;;12.80;99.90;;;;;;5033114;28;20487;-73
2022/10/13 06:34:18;;;;;;;9.53;3.97;;;12.80;99.90;;;;;;5036125;28;21134;-72
2022/10/13 06:36:46;;;;;;;18.00;5.80;;;12.90;99.90;;;;;;5020222;28;20806;-72
2022/10/13 06:39:13;;;;;;;5.60;2.07;;;13.00;99.90;;;;;;5037604;28;20448;-72
2022/10/13 06:41:40;;;;;;;10.57;4.50;;;13.10;99.90;;;;;;5034369;28;20467;-72
2022/10/13 06:44:07;;;;;;;11.60;4.90;;;13.10;99.90;;;;;;5035681;28;20456;-72
2022/10/13 06:46:34;;;;;;;6.37;3.10;;;13.10;99.90;;;;;;5033215;28;20460;-71
2022/10/13 06:49:01;;;;;;;9.77;3.80;;;13.30;99.90;;;;;;5036615;28;20457;-71
2022/10/13 06:51:29;;;;;;;6.60;2.73;;;13.30;99.90;;;;;;5033931;28;20839;-71
2022/10/13 06:53:57;;;;;;;9.50;3.30;;;13.30;99.90;;;;;;5034666;28;20896;-71
2022/10/13 06:56:23;;;;;;;6.80;4.00;;;13.40;99.90;;;;;;5033298;28;20465;-71
2022/10/13 06:58:50;;;;;;;9.87;4.70;;;13.40;99.90;;;;;;5035946;28;20832;-71
2022/10/13 07:01:17;;;;;;;5.77;3.20;;;13.30;99.90;;;;;;5031524;28;20546;-71
2022/10/13 07:03:47;;;;;;;7.80;2.87;;;13.20;99.90;;;;;;5034645;28;21106;-71
2022/10/13 07:06:14;;;;;;;9.10;4.80;;;13.20;99.90;;;;;;5032001;28;20456;-71
2022/10/13 07:08:43;;;;;;;4.67;2.63;;;13.20;99.90;;;;;;5034919;28;20805;-71
2022/10/13 07:11:12;;;;;;;10.47;4.67;;;13.20;99.90;;;;;;5031638;28;20487;-72
2022/10/13 07:13:39;;;;;;;7.67;2.33;;;13.20;99.90;;;;;;5035813;28;20476;-71
2022/10/13 07:16:07;;;;;;;7.60;3.23;;;13.30;99.90;;;;;;5031692;28;20499;-71
2022/10/13 07:18:34;;;;;;;8.03;3.70;;;13.30;99.90;;;;;;5035041;28;20962;-71
2022/10/13 07:21:02;;;;;;;7.97;3.93;;;13.30;99.90;;;;;;5031406;28;20959;-72
2022/10/13 07:23:30;;;;;;;7.13;2.53;;;13.30;99.90;;;;;;5034993;28;20464;-71
2022/10/13 07:25:58;;;;;;;7.17;3.57;;;13.30;99.90;;;;;;5033914;28;20457;-72
2022/10/13 07:28:25;;;;;;;4.60;2.50;;;13.50;99.90;;;;;;5035003;28;20448;-71
2022/10/13 07:30:53;;;;;;;7.77;4.10;;;13.60;99.90;;;;;;5035346;28;20488;-70
2022/10/13 07:33:20;;;;;;;6.03;2.30;;;13.50;99.90;;;;;;5034953;28;20448;-71
2022/10/13 07:35:47;;;;;;;6.10;3.23;;;13.50;99.90;;;;;;5035462;28;20515;-73
2022/10/13 07:38:14;;;;;;;6.57;3.20;;;13.40;99.90;;;;;;5036422;28;20880;-72
2022/10/13 07:40:41;;;;;;;8.10;3.50;;;13.40;99.90;;;;;;5031665;28;20515;-71
2022/10/13 07:43:09;;;;;;;8.07;2.33;;;13.40;99.90;;;;;;5033985;28;20502;-71
2022/10/13 07:45:37;;;;;;;13.80;4.80;;;13.40;99.90;;;;;;5034956;28;20464;-71
2022/10/13 07:48:04;;;;;;;5.87;2.97;;;13.50;99.90;;;;;;5032352;28;20518;-71
2022/10/13 07:50:31;;;;;;;6.83;3.23;;;13.50;99.90;;;;;;5034031;28;20521;-71
2022/10/13 07:52:58;;;;;;;6.03;2.27;;;13.50;99.90;;;;;;5031182;28;20456;-71
2022/10/13 07:55:25;;;;;;;6.77;3.13;;;13.60;99.90;;;;;;5034754;28;20441;-69
2022/10/13 07:57:52;;;;;;;6.33;3.00;;;13.70;99.90;;;;;;5032190;28;20453;-70
2022/10/13 08:00:20;;;;;;;5.73;2.83;;;13.70;99.90;;;;;;5035210;28;20444;-70
2022/10/13 08:02:50;;;;;;;9.77;3.70;;;13.70;99.90;;;;;;5030430;28;20511;-70
2022/10/13 08:05:17;;;;;;;3.17;2.53;;;13.60;99.90;;;;;;5033147;28;20444;-69
2022/10/13 08:07:44;;;;;;;5.57;2.07;;;13.60;99.90;;;;;;5031416;28;20506;-70
2022/10/13 08:10:12;;;;;;;8.40;3.80;;;13.60;99.90;;;;;;5034629;28;20444;-70
2022/10/13 08:12:39;;;;;;;4.43;2.87;;;13.60;99.90;;;;;;5030700;28;20476;-70
2022/10/13 08:15:07;;;;;;;4.10;1.90;;;13.70;99.90;;;;;;5034840;28;20506;-71
2022/10/13 08:17:36;;;;;;;8.27;2.60;;;13.70;99.90;;;;;;5032087;28;20536;-70
2022/10/13 08:20:07;;;;;;;7.97;2.27;;;13.80;99.90;;;;;;5034615;28;20445;-71
2022/10/13 08:22:34;;;;;;;5.93;2.20;;;13.80;99.90;;;;;;5030568;28;20467;-70
2022/10/13 08:25:06;;;;;;;7.23;3.40;;;13.80;99.90;;;;;;5033682;28;20441;-71
2022/10/13 08:27:33;;;;;;;6.37;2.90;;;13.80;99.90;;;;;;5030975;28;20502;-71
2022/10/13 08:30:00;;;;;;;4.40;2.10;;;13.90;99.90;;;;;;5033115;28;20445;-70
2022/10/13 08:32:27;;;;;;;5.00;3.10;;;14.00;99.90;;;;;;5033205;28;20587;-70
2022/10/13 08:34:55;;;;;;;8.93;3.50;;;14.10;99.90;;;;;;5036707;28;20806;-70
2022/10/13 08:37:22;;;;;;;4.63;2.27;;;14.10;99.90;;;;;;5044742;28;20451;-70
2022/10/13 08:39:49;;;;;;;2.93;1.70;;;14.20;99.90;;;;;;5028163;28;20499;-70
2022/10/13 08:42:20;;;;;;;5.77;2.07;;;14.30;99.90;;;;;;5033495;28;20479;-70
2022/10/13 08:44:51;;;;;;;3.03;2.00;;;14.40;99.90;;;;;;5044088;28;20448;-71
2022/10/13 08:47:35;;;;;;;6.30;1.93;;;14.50;99.90;;;;;;5041472;28;20546;-71
2022/10/13 08:50:10;;;;;;;3.97;1.80;;;14.50;99.90;;;;;;5054341;28;20914;-71
2022/10/13 08:52:49;;;;;;;3.13;1.70;;;14.50;99.90;;;;;;5040659;28;20474;-71
2022/10/13 08:55:23;;;;;;;5.80;1.73;;;14.50;99.90;;;;;;5046372;28;20448;-71
2022/10/13 08:57:52;;;;;;;4.70;1.70;;;14.60;99.90;;;;;;5053299;28;20455;-70
2022/10/13 09:00:20;;;;;;;4.00;1.60;;;14.70;99.90;;;;;;5044042;28;20447;-71
2022/10/13 09:02:48;;;;;;;6.13;2.27;;;14.80;99.90;;;;;;5047080;28;20459;-70
2022/10/13 09:05:28;;;;;;;2.67;1.30;;;14.90;99.90;;;;;;5051817;28;20449;-71
2022/10/13 09:07:56;;;;;;;5.00;1.90;;;15.00;99.90;;;;;;5039614;28;20543;-71
2022/10/13 09:10:23;;;;;;;2.27;1.20;;;15.10;99.50;;;;;;5054456;28;20476;-70
2022/10/13 09:12:50;;;;;;;3.10;1.60;;;15.20;97.20;;;;;;5041510;28;20490;-71
2022/10/13 09:15:18;;;;;;;4.23;1.93;;;15.20;92.30;;;;;;5043177;28;20471;-71
2022/10/13 09:17:46;;;;;;;3.70;1.70;;;15.20;95.50;;;;;;5033346;28;20551;-70
2022/10/13 09:20:21;;;;;;;5.70;1.50;;;15.30;99.00;;;;;;5039299;28;20440;-70
2022/10/13 09:23:02;;;;;;;6.07;1.30;;;15.40;92.60;;;;;;5045852;28;20444;-71
2022/10/13 09:25:29;;;;;;;4.17;1.10;;;15.40;87.50;;;;;;5050667;28;20435;-70
2022/10/13 09:27:59;;;;;;;2.83;1.23;;;15.40;93.10;;;;;;5037001;28;21005;-71
2022/10/13 09:30:32;;;;;;;3.77;1.40;;;15.50;81.10;;;;;;5057032;28;20500;-70
2022/10/13 09:33:14;;;;;;;1.80;1.20;;;15.60;78.70;;;;;;5049033;28;20925;-71
2022/10/13 09:35:44;;;;;;;5.40;1.70;;;15.60;77.00;;;;;;5037132;28;20444;-72
2022/10/13 09:38:14;;;;;;;6.20;1.30;;;15.60;80.50;;;;;;5035074;28;20456;-71
2022/10/13 09:40:42;;;;;;;3.87;1.30;;;15.60;80.20;;;;;;5037758;28;20864;-70
2022/10/13 09:43:26;;;;;;;6.70;1.60;;;15.60;91.20;;;;;;5035670;28;20928;-71
2022/10/13 09:45:53;;;;;;;2.40;1.10;;;15.70;80.00;;;;;;5036525;28;21035;-71
2022/10/13 09:48:25;;;;;;;2.67;1.07;;;15.80;58.10;;;;;;5036838;28;20811;-72
2022/10/13 09:50:55;;;;;;;4.80;1.60;;;15.90;67.30;;;;;;5036083;28;20453;-72
2022/10/13 09:53:29;;;;;;;1.77;1.10;;;16.00;54.10;;;;;;5036266;28;20563;-72
2022/10/13 09:56:11;;;;;;;2.47;1.17;;;16.00;53.30;;;;;;5037636;28;20444;-72
2022/10/13 09:58:46;;;;;;;2.60;1.20;;;16.10;50.00;;;;;;5031508;28;20460;-72
2022/10/13 10:01:22;;;;;;;3.40;1.17;;;16.30;45.70;;;;;;5037998;28;20455;-71
2022/10/13 10:03:50;;;;;;;4.07;1.00;;;16.40;28.80;;;;;;5034715;28;20817;-72
2022/10/13 10:06:19;;;;;;;2.27;1.17;;;16.40;31.00;;;;;;5037111;28;20789;-72
2022/10/13 10:08:55;;;;;;;2.57;1.30;;;16.40;29.90;;;;;;5037254;28;20460;-71
2022/10/13 10:11:31;;;;;;;1.77;1.20;;;16.30;29.90;;;;;;5036682;28;20506;-72
2022/10/13 10:13:59;;;;;;;3.10;1.20;;;16.30;34.10;;;;;;5032015;28;20487;-71
2022/10/13 10:16:35;;;;;;;1.97;1.30;;;16.40;41.60;;;;;;5036154;28;20472;-72
2022/10/13 10:19:10;;;;;;;2.73;1.20;;;16.60;23.50;;;;;;5032710;28;20455;-71
2022/10/13 10:21:43;;;;;;;2.73;1.07;;;16.60;23.50;;;;;;5017848;28;20526;-71
2022/10/13 10:24:24;;;;;;;4.18;1.10;;;16.70;13.20;;;;;;5013876;28;20398;-72
2022/10/13 10:26:57;;;;;;;3.17;1.20;;;16.60;3.60;;;;;;5026583;28;20202;-72
2022/10/13 10:29:42;;;;;;;1.80;1.20;;;16.50;16.10;;;;;;5037374;28;20520;-71
2022/10/13 10:32:29;;;;;;;3.10;1.43;;;16.40;29.90;;;;;;5035134;28;20483;-70
2022/10/13 10:35:04;;;;;;;2.47;1.10;;;16.40;25.30;;;;;;5033453;28;20513;-70
2022/10/13 10:37:44;;;;;;;3.10;1.40;;;16.30;32.60;;;;;;5039190;28;20483;-70
2022/10/13 10:40:24;;;;;;;5.53;2.20;;;16.30;37.00;;;;;;5042206;28;20197;-69
2022/10/13 10:43:15;;;;;;;2.43;1.20;;;16.30;22.60;;;;;;5039469;28;20915;-70
2022/10/13 10:45:44;;;;;;;2.47;1.60;;;16.30;26.50;;;;;;5027650;28;20513;-71
2022/10/13 10:48:19;;;;;;;2.40;1.10;;;16.20;30.80;;;;;;5044077;28;20858;-71
2022/10/13 10:50:47;;;;;;;2.67;1.07;;;16.20;19.80;;;;;;5048296;28;20451;-70
2022/10/13 10:53:24;;;;;;;5.30;1.63;;;16.20;26.50;;;;;;5039028;28;20471;-71
2022/10/13 10:55:55;;;;;;;2.80;1.30;;;16.30;28.10;;;;;;5041604;28;20455;-71
2022/10/13 10:58:36;;;;;;;1.57;1.10;;;16.40;11.50;;;;;;5042778;28;20495;-70
2022/10/13 11:01:15;;;;;;;2.90;1.00;;;16.30;22.60;;;;;;5052127;28;20459;-71
2022/10/13 11:03:51;;;;;;;3.07;1.00;;;16.40;28.90;;;;;;5035044;28;20448;-71
2022/10/13 11:06:35;;;;;;;1.90;1.00;;;16.40;23.40;;;;;;5033009;28;20482;-71
2022/10/13 11:09:11;;;;;;;4.93;1.10;;;16.60;7.60;;;;;;5034421;28;20491;-71
2022/10/13 11:11:40;;;;;;;1.40;1.00;;;16.70;7.50;;;;;;5033045;28;20456;-71
2022/10/13 11:14:29;;;;;;;2.13;1.10;;;16.80;5.10;;;;;;5033694;28;20475;-71
2022/10/13 11:17:10;;;;;;;2.20;1.37;;;16.90;1.00;;;;;;5033386;28;20452;-70
2022/10/13 11:19:38;;;;;;;1.50;1.10;;;16.90;1.00;;;;;;5033467;28;20578;-70
2022/10/13 11:22:14;;;;;;;2.17;1.13;;;16.90;1.00;;;;;;5031568;28;20534;-71
2022/10/13 11:25:02;;;;;;;2.27;1.20;;;17.00;1.00;;;;;;5033833;28;20460;-71
2022/10/13 11:27:41;;;;;;;1.90;1.00;;;17.10;1.00;;;;;;5031705;28;20456;-71
2022/10/13 11:30:42;;;;;;;4.03;1.10;;;17.20;1.00;;;;;;5032657;28;20454;-71
2022/10/13 11:33:32;;;;;;;2.83;1.00;;;17.20;1.00;;;;;;5031706;28;20844;-70
2022/10/13 11:36:29;;;;;;;3.97;1.43;;;17.10;1.00;;;;;;5029599;28;20468;-71
2022/10/13 11:39:08;;;;;;;1.50;1.10;;;17.20;1.00;;;;;;5032090;28;20463;-71
2022/10/13 11:41:45;;;;;;;4.40;1.30;;;17.20;1.00;;;;;;5034687;28;20444;-71
2022/10/13 11:44:19;;;;;;;2.33;1.30;;;17.30;1.00;;;;;;5031212;28;20522;-71
2022/10/13 11:47:00;;;;;;;2.20;0.97;;;17.40;1.00;;;;;;5034925;28;20534;-71
2022/10/13 11:49:49;;;;;;;2.13;1.00;;;17.40;1.00;;;;;;5032763;28;20456;-71
2022/10/13 11:52:36;;;;;;;6.07;1.30;;;17.40;1.00;;;;;;5034232;28;20480;-71
2022/10/13 11:55:09;;;;;;;4.27;1.20;;;17.40;1.00;;;;;;5033288;28;20899;-71
2022/10/13 11:57:38;;;;;;;3.27;1.10;;;17.60;1.00;;;;;;5031589;28;20440;-71
2022/10/13 12:00:12;;;;;;;2.20;1.20;;;17.70;1.00;;;;;;5033324;28;20448;-71
2022/10/13 12:02:48;;;;;;;2.23;0.90;;;17.80;1.00;;;;;;5030761;28;20502;-71
2022/10/13 12:05:22;;;;;;;1.50;1.00;;;17.80;1.00;;;;;;5032746;28;20470;-71
2022/10/13 12:07:50;;;;;;;2.87;0.90;;;17.80;1.00;;;;;;5029262;28;20456;-71
2022/10/13 12:10:23;;;;;;;2.43;0.97;;;17.90;1.00;;;;;;5032123;28;20479;-70
2022/10/13 12:12:52;;;;;;;1.67;1.00;;;18.20;1.00;;;;;;5030167;28;20528;-70
2022/10/13 12:15:35;;;;;;;1.83;0.93;;;18.30;1.00;;;;;;5032197;28;21104;-71
2022/10/13 12:18:03;;;;;;;2.60;1.00;;;18.20;1.00;;;;;;5033150;28;20463;-70
2022/10/13 12:20:35;;;;;;;1.50;0.90;;;18.10;1.00;;;;;;5031335;28;20767;-70
2022/10/13 12:23:02;;;;;;;2.33;0.80;;;18.00;1.00;;;;;;5031718;28;20444;-71
2022/10/13 12:25:32;;;;;;;1.60;0.90;;;18.00;1.00;;;;;;5030984;28;20460;-71
2022/10/13 12:28:01;;;;;;;1.40;0.90;;;18.00;1.00;;;;;;5035389;28;20449;-71
2022/10/13 12:30:30;;;;;;;4.40;1.00;;;18.00;1.00;;;;;;5029007;28;20457;-71
2022/10/13 12:32:59;;;;;;;2.13;0.80;;;18.00;1.00;;;;;;5033441;28;20542;-71
2022/10/13 12:35:29;;;;;;;1.13;0.80;;;18.00;1.00;;;;;;5030151;28;20514;-72
2022/10/13 12:37:58;;;;;;;1.37;0.90;;;18.00;1.00;;;;;;5034463;28;20903;-71
2022/10/13 12:40:26;;;;;;;2.00;1.03;;;17.90;1.00;;;;;;5032002;28;20541;-72
2022/10/13 12:42:56;;;;;;;2.33;1.30;;;18.00;1.00;;;;;;5033959;28;20444;-71
2022/10/13 12:45:31;;;;;;;3.10;1.10;;;18.10;1.00;;;;;;5031168;28;20518;-70
2022/10/13 12:47:58;;;;;;;2.80;0.90;;;18.20;1.00;;;;;;5033528;28;20441;-71
2022/10/13 12:50:37;;;;;;;1.57;0.80;;;18.00;1.00;;;;;;5031993;28;20930;-71
2022/10/13 12:53:39;;;;;;;1.63;0.77;;;18.00;1.00;;;;;;5033617;28;20561;-71
2022/10/13 12:56:18;;;;;;;1.87;0.80;;;18.20;1.00;;;;;;5028338;28;20464;-71
2022/10/13 12:58:45;;;;;;;1.80;0.83;;;18.30;1.00;;;;;;5033043;28;20448;-71
2022/10/13 13:01:31;;;;;;;1.10;0.80;;;18.40;1.00;;;;;;5030074;28;20538;-71
2022/10/13 13:04:01;;;;;;;1.10;0.73;;;18.40;1.00;;;;;;5033086;28;20449;-71
2022/10/13 13:06:38;;;;;;;1.40;0.90;;;18.40;1.00;;;;;;5029696;28;20822;-71